Time;durP1;ratioP1;P1;durP2;ratioP2;P2;SDS_P1;SDS_P2;PMS_P1;PMS_P2;Temp;Humidity;BMP_temperature;BMP_pressure;BME280_temperature;BME280_humidity;BME280_pressure;Samples;Min_cycle;Max_cycle;Signal;HPM_P1;HPM_P2
2022/10/26 00:00:09;;;;;;;5.10;3.17;;;11.00;99.90;;;;;;5105433;28;20242;-88
2022/10/26 00:02:49;;;;;;;4.50;3.03;;;11.00;99.90;;;;;;5112906;28;20278;-87
2022/10/26 00:05:16;;;;;;;4.38;2.83;;;10.90;99.90;;;;;;5118240;27;20654;-88
2022/10/26 00:07:43;;;;;;;4.57;2.67;;;10.80;99.90;;;;;;5113520;27;20750;-88
2022/10/26 00:10:10;;;;;;;3.40;2.45;;;10.90;99.90;;;;;;5115027;27;20290;-88
2022/10/26 00:12:37;;;;;;;6.47;2.55;;;11.00;99.90;;;;;;5111064;28;20290;-87
2022/10/26 00:15:15;;;;;;;3.47;2.17;;;11.00;99.90;;;;;;5112370;28;20722;-88
2022/10/26 00:17:44;;;;;;;5.35;2.30;;;10.90;99.90;;;;;;5123680;27;20179;-87
2022/10/26 00:20:25;;;;;;;3.70;2.20;;;11.00;99.90;;;;;;5115133;27;20290;-87
2022/10/26 00:23:31;;;;;;;2.85;2.25;;;11.10;99.90;;;;;;5110610;28;20275;-87
2022/10/26 00:26:02;;;;;;;3.88;2.38;;;11.20;99.90;;;;;;5113257;28;20295;-87
2022/10/26 00:35:14;;;;;;;5.40;2.42;;;11.30;99.90;;;;;;5112707;28;20212;-87
2022/10/26 00:45:00;;;;;;;4.20;2.25;;;11.30;99.90;;;;;;5117274;28;20600;-88
2022/10/26 00:47:38;;;;;;;3.17;2.10;;;11.20;99.90;;;;;;5108116;28;20298;-87
2022/10/26 00:50:34;;;;;;;3.33;2.25;;;11.20;99.90;;;;;;5118320;28;20282;-87
2022/10/26 01:00:19;;;;;;;2.53;1.80;;;11.40;99.90;;;;;;5108636;28;20239;-87
2022/10/26 01:03:00;;;;;;;3.83;2.10;;;11.50;99.90;;;;;;5109081;28;20733;-87
2022/10/26 01:12:27;;;;;;;3.97;2.08;;;11.40;99.90;;;;;;5117916;28;20203;-87
2022/10/26 01:14:54;;;;;;;3.20;1.92;;;11.50;99.90;;;;;;5111597;28;20545;-87
2022/10/26 01:17:48;;;;;;;2.55;1.88;;;11.50;99.90;;;;;;5121843;28;20228;-88
2022/10/26 01:24:19;;;;;;;6.53;2.20;;;11.30;99.90;;;;;;5116615;28;20187;-87
2022/10/26 01:30:30;;;;;;;3.83;2.03;;;11.20;99.90;;;;;;5109702;28;20251;-88
2022/10/26 01:33:22;;;;;;;5.45;2.20;;;11.20;99.90;;;;;;5117879;28;20235;-87
2022/10/26 01:36:22;;;;;;;2.90;2.13;;;11.20;99.90;;;;;;5103390;28;20234;-87
2022/10/26 01:39:14;;;;;;;5.30;1.95;;;11.50;99.90;;;;;;5111668;28;20252;-87
2022/10/26 01:45:43;;;;;;;3.13;1.70;;;11.50;99.90;;;;;;5119462;28;20183;-87
2022/10/26 01:51:35;;;;;;;2.20;1.90;;;11.50;99.90;;;;;;5127920;28;20163;-87
2022/10/26 01:57:38;;;;;;;2.17;1.77;;;11.60;99.90;;;;;;5112143;28;20188;-88
2022/10/26 02:00:20;;;;;;;5.00;1.90;;;11.60;99.90;;;;;;5121077;28;20271;-87
2022/10/26 02:06:45;;;;;;;4.07;1.70;;;11.60;99.90;;;;;;5124620;28;20219;-87
2022/10/26 02:09:42;;;;;;;5.15;1.90;;;11.60;99.90;;;;;;5120396;28;20256;-87
2022/10/26 02:13:01;;;;;;;3.85;1.98;;;11.50;99.90;;;;;;5118867;28;20288;-88
2022/10/26 02:19:02;;;;;;;3.33;1.77;;;11.50;99.90;;;;;;5110138;28;20257;-87
2022/10/26 02:21:43;;;;;;;3.22;1.85;;;11.60;99.90;;;;;;5115674;28;20235;-87
2022/10/26 02:28:25;;;;;;;4.63;1.60;;;11.70;99.90;;;;;;5122535;28;20225;-87
2022/10/26 02:31:14;;;;;;;4.38;2.22;;;11.50;99.90;;;;;;5132433;27;20223;-89
2022/10/26 02:34:25;;;;;;;3.47;1.83;;;11.40;99.90;;;;;;5121882;28;20223;-88
2022/10/26 02:40:51;;;;;;;2.33;1.60;;;11.40;99.90;;;;;;5122459;28;20280;-87
2022/10/26 02:47:11;;;;;;;3.38;1.92;;;11.60;99.90;;;;;;5103227;28;20183;-87
2022/10/26 02:53:16;;;;;;;3.22;1.70;;;11.80;99.90;;;;;;5123470;28;20210;-87
2022/10/26 03:03:04;;;;;;;1.80;1.60;;;11.70;99.90;;;;;;5107115;28;20268;-87
2022/10/26 03:05:32;;;;;;;3.78;1.45;;;11.80;99.90;;;;;;5139476;22;20326;-87
2022/10/26 03:08:52;;;;;;;2.47;1.52;;;11.70;99.90;;;;;;5125839;28;20279;-87
2022/10/26 03:11:25;;;;;;;2.13;1.77;;;11.70;99.90;;;;;;5111367;28;20243;-87
2022/10/26 03:14:43;;;;;;;3.78;1.63;;;11.60;99.90;;;;;;5121238;28;20239;-87
2022/10/26 03:20:45;;;;;;;6.22;1.67;;;11.50;99.90;;;;;;5126856;28;20229;-87
2022/10/26 03:23:14;;;;;;;2.38;1.40;;;11.80;99.90;;;;;;5127054;28;20225;-87
2022/10/26 03:29:56;;;;;;;1.65;1.55;;;11.90;99.90;;;;;;5112753;28;20654;-87
2022/10/26 03:32:55;;;;;;;3.40;1.52;;;11.80;99.90;;;;;;5111957;28;20724;-87
2022/10/26 03:38:45;;;;;;;1.67;1.50;;;11.60;99.90;;;;;;5106134;28;20164;-87
2022/10/26 03:41:25;;;;;;;4.72;1.75;;;11.70;99.90;;;;;;5107028;28;20211;-87
2022/10/26 03:48:01;;;;;;;3.95;1.83;;;11.80;99.90;;;;;;5107629;28;20159;-88
2022/10/26 03:56:38;;;;;;;29.55;20.98;;;12.00;99.90;;;;;;5125321;28;20215;-87
2022/10/26 04:02:27;;;;;;;12.32;9.07;;;12.10;99.90;;;;;;5126548;28;20171;-87
2022/10/26 04:04:53;;;;;;;5.13;4.22;;;12.10;99.90;;;;;;5194467;22;20271;-87
2022/10/26 04:14:45;;;;;;;3.10;2.80;;;12.00;99.90;;;;;;5094949;28;20314;-87
2022/10/26 04:20:09;;;;;;;5.22;1.60;;;12.10;99.90;;;;;;5092156;28;20262;-87
2022/10/26 04:22:36;;;;;;;1.90;1.58;;;12.10;99.90;;;;;;5106986;28;20196;-87
2022/10/26 04:28:30;;;;;;;5.95;2.70;;;11.90;99.90;;;;;;5107055;28;20202;-87
2022/10/26 04:34:30;;;;;;;4.40;1.65;;;12.10;99.90;;;;;;5094120;28;20179;-87
2022/10/26 04:37:43;;;;;;;2.17;1.85;;;11.90;99.90;;;;;;5085251;28;20687;-88
2022/10/26 04:40:32;;;;;;;3.00;1.90;;;11.90;99.90;;;;;;5092690;28;20240;-87
2022/10/26 04:43:14;;;;;;;3.63;1.80;;;12.00;99.90;;;;;;5098490;28;20227;-87
2022/10/26 04:49:04;;;;;;;4.25;3.00;;;12.20;99.90;;;;;;5089390;28;20163;-89
2022/10/26 04:55:17;;;;;;;4.60;1.60;;;12.30;99.90;;;;;;5107999;28;20172;-86
2022/10/26 05:07:55;;;;;;;2.83;1.70;;;12.20;99.90;;;;;;5127146;28;20233;-86
2022/10/26 05:17:34;;;;;;;3.00;1.63;;;12.30;99.90;;;;;;5112616;28;20186;-88
2022/10/26 05:20:49;;;;;;;3.83;2.00;;;12.40;99.90;;;;;;5113874;28;20257;-87
2022/10/26 05:23:19;;;;;;;2.58;2.20;;;12.50;99.90;;;;;;5114273;28;20188;-90
2022/10/26 05:25:57;;;;;;;2.92;2.10;;;12.50;99.90;;;;;;5128359;28;20269;-90
2022/10/26 05:29:01;;;;;;;3.92;2.25;;;12.50;99.90;;;;;;5121955;28;20195;-87
2022/10/26 05:38:55;;;;;;;4.45;2.20;;;12.50;99.90;;;;;;5129684;28;20176;-91
2022/10/26 05:42:13;;;;;;;3.72;2.00;;;12.40;99.90;;;;;;5039401;28;20631;-91
2022/10/26 05:48:08;;;;;;;5.38;2.40;;;12.60;99.90;;;;;;5049968;28;20237;-90
2022/10/26 05:57:13;;;;;;;5.43;2.40;;;12.60;99.90;;;;;;5040138;28;20584;-89
2022/10/26 05:59:50;;;;;;;3.63;2.50;;;12.50;99.90;;;;;;5040206;28;20195;-88
2022/10/26 06:02:29;;;;;;;7.18;2.58;;;12.50;99.90;;;;;;5036932;28;20313;-88
2022/10/26 06:05:02;;;;;;;5.47;2.25;;;12.60;99.90;;;;;;5036098;28;20713;-88
2022/10/26 06:07:29;;;;;;;5.57;2.60;;;12.70;99.90;;;;;;5106570;28;20276;-86
2022/10/26 06:14:02;;;;;;;4.65;2.45;;;12.80;99.90;;;;;;5112819;28;20264;-88
2022/10/26 06:16:38;;;;;;;5.63;2.50;;;12.80;99.90;;;;;;5106583;28;20203;-87
2022/10/26 06:19:15;;;;;;;5.38;2.47;;;12.80;99.90;;;;;;5107039;28;20298;-86
2022/10/26 06:22:03;;;;;;;5.70;2.47;;;12.90;99.90;;;;;;5108915;28;20207;-87
2022/10/26 06:24:37;;;;;;;3.47;2.00;;;12.90;99.90;;;;;;5117110;28;20212;-88
2022/10/26 06:27:23;;;;;;;5.82;2.40;;;12.90;99.90;;;;;;5110677;28;20291;-89
2022/10/26 06:30:02;;;;;;;4.70;2.30;;;13.00;99.90;;;;;;5102454;28;20188;-87
2022/10/26 06:32:29;;;;;;;5.22;2.22;;;13.20;99.90;;;;;;5115440;28;20224;-88
2022/10/26 06:35:08;;;;;;;5.65;2.30;;;13.20;99.90;;;;;;5118673;28;20607;-87
2022/10/26 06:37:46;;;;;;;4.20;2.53;;;13.10;99.90;;;;;;5110401;28;20291;-88
2022/10/26 06:40:49;;;;;;;4.88;2.65;;;13.00;99.90;;;;;;5113778;28;20233;-87
2022/10/26 06:43:43;;;;;;;7.47;2.50;;;13.00;99.90;;;;;;5120344;28;20231;-88
2022/10/26 06:46:24;;;;;;;5.50;2.50;;;12.90;99.90;;;;;;5110842;28;20224;-88
2022/10/26 06:49:17;;;;;;;5.47;2.53;;;13.00;99.90;;;;;;5113262;28;20196;-89
2022/10/26 06:52:25;;;;;;;4.07;2.40;;;13.10;99.90;;;;;;5105145;28;20288;-89
2022/10/26 06:58:18;;;;;;;6.03;2.53;;;13.10;99.90;;;;;;5113690;28;20244;-89
2022/10/26 07:00:48;;;;;;;4.10;2.75;;;13.20;99.90;;;;;;5108216;28;20223;-90
2022/10/26 07:03:17;;;;;;;8.48;2.90;;;13.20;99.90;;;;;;5107630;28;20282;-90
2022/10/26 07:05:45;;;;;;;5.50;2.92;;;13.30;99.90;;;;;;5111410;28;20220;-89
2022/10/26 07:08:13;;;;;;;8.25;2.92;;;13.40;99.90;;;;;;5114948;28;20290;-89
2022/10/26 07:10:44;;;;;;;6.70;3.00;;;13.40;99.90;;;;;;5109146;28;20220;-89
2022/10/26 07:13:16;;;;;;;4.18;2.67;;;13.40;99.90;;;;;;5111513;28;20259;-91
2022/10/26 07:15:46;;;;;;;4.32;2.78;;;13.50;99.90;;;;;;5106601;28;20634;-89
2022/10/26 07:18:13;;;;;;;5.45;2.58;;;13.50;99.90;;;;;;5107363;28;20580;-89
2022/10/26 07:20:42;;;;;;;5.20;2.75;;;13.50;99.90;;;;;;5105261;28;20203;-90
2022/10/26 07:23:14;;;;;;;4.65;2.60;;;13.60;99.90;;;;;;5107048;28;20678;-88
2022/10/26 07:25:41;;;;;;;5.38;2.50;;;13.50;99.90;;;;;;5107886;28;20677;-88
2022/10/26 07:28:10;;;;;;;6.65;2.75;;;13.50;99.90;;;;;;5111514;28;20235;-90
2022/10/26 07:30:44;;;;;;;4.50;2.53;;;13.60;99.90;;;;;;5103130;28;20208;-89
2022/10/26 07:33:18;;;;;;;4.75;2.50;;;13.60;99.90;;;;;;5101987;28;20295;-91
2022/10/26 07:35:47;;;;;;;5.03;2.60;;;13.60;99.90;;;;;;5104965;28;20199;-91
2022/10/26 07:38:14;;;;;;;6.35;2.28;;;13.70;99.90;;;;;;5110387;28;20506;-90
2022/10/26 07:40:45;;;;;;;5.20;2.33;;;13.70;99.90;;;;;;5106086;28;20711;-90
2022/10/26 07:43:12;;;;;;;3.72;2.00;;;13.60;99.90;;;;;;5108650;28;20282;-91
2022/10/26 07:45:39;;;;;;;7.57;2.40;;;13.60;99.90;;;;;;5108573;28;20684;-90
2022/10/26 07:48:06;;;;;;;5.15;2.20;;;13.60;99.90;;;;;;5114382;28;20200;-90
2022/10/26 07:50:33;;;;;;;3.95;1.88;;;13.60;99.90;;;;;;5098972;28;20275;-90
2022/10/26 07:53:01;;;;;;;3.33;1.75;;;13.60;99.90;;;;;;5106332;28;20586;-91
2022/10/26 07:55:28;;;;;;;3.33;1.98;;;13.60;99.90;;;;;;5111263;28;20681;-90
2022/10/26 07:57:56;;;;;;;4.22;1.80;;;13.70;99.90;;;;;;5106301;28;20288;-90
2022/10/26 08:00:23;;;;;;;4.47;1.75;;;13.70;99.90;;;;;;5104761;28;20275;-91
2022/10/26 08:02:49;;;;;;;5.05;2.50;;;13.80;99.90;;;;;;5110002;28;20326;-90
2022/10/26 08:05:37;;;;;;;3.85;1.65;;;14.00;99.90;;;;;;5110985;28;20318;-91
2022/10/26 08:11:06;;;;;;;1.80;1.40;;;14.20;99.30;;;;;;5112952;28;20203;-90
2022/10/26 08:13:52;;;;;;;3.08;1.73;;;14.20;98.70;;;;;;5108305;28;20298;-89
2022/10/26 08:17:07;;;;;;;1.50;1.33;;;14.20;98.70;;;;;;5105352;28;20192;-91
2022/10/26 08:20:01;;;;;;;3.30;1.42;;;14.30;98.80;;;;;;5111285;28;20203;-90
2022/10/26 08:22:44;;;;;;;2.40;1.60;;;14.30;99.20;;;;;;5115021;28;20244;-90
2022/10/26 08:25:15;;;;;;;3.75;1.67;;;14.20;99.60;;;;;;5113100;28;20279;-90
2022/10/26 08:28:02;;;;;;;5.72;2.03;;;14.30;99.40;;;;;;5105244;28;20225;-90
2022/10/26 08:33:51;;;;;;;3.65;1.50;;;14.50;98.90;;;;;;5107323;28;20198;-90
2022/10/26 08:36:24;;;;;;;2.78;1.77;;;14.80;98.70;;;;;;5116214;28;20239;-91
2022/10/26 08:39:02;;;;;;;1.73;1.50;;;15.30;98.20;;;;;;5118688;28;20199;-91
2022/10/26 08:45:21;;;;;;;2.70;1.40;;;16.70;95.30;;;;;;5117913;28;20195;-91
2022/10/26 08:48:12;;;;;;;3.13;1.42;;;17.50;91.80;;;;;;5118229;28;20238;-88
2022/10/26 08:50:52;;;;;;;1.92;1.13;;;17.60;90.30;;;;;;5123753;28;20204;-90
2022/10/26 08:53:24;;;;;;;2.00;1.48;;;17.60;87.70;;;;;;5100346;28;20211;-90
2022/10/26 08:56:43;;;;;;;6.53;1.40;;;17.30;87.90;;;;;;5119195;28;20219;-90
2022/10/26 08:59:27;;;;;;;2.05;1.40;;;17.20;90.10;;;;;;5117312;28;20267;-90
2022/10/26 09:01:56;;;;;;;3.22;1.23;;;17.90;88.30;;;;;;5113998;28;20234;-91
2022/10/26 09:04:27;;;;;;;1.83;1.27;;;19.00;80.10;;;;;;5103863;28;20200;-90
2022/10/26 09:07:43;;;;;;;3.00;1.30;;;20.20;71.00;;;;;;5104264;28;20275;-87
2022/10/26 09:10:29;;;;;;;2.38;1.30;;;20.80;56.60;;;;;;5086032;28;20215;-87
2022/10/26 09:13:03;;;;;;;2.97;1.50;;;21.30;54.50;;;;;;5092930;28;20261;-87
2022/10/26 09:16:05;;;;;;;2.22;1.30;;;21.50;50.20;;;;;;5092025;28;20634;-88
2022/10/26 09:18:46;;;;;;;3.53;1.50;;;22.30;44.10;;;;;;5098095;28;20198;-89
2022/10/26 09:21:28;;;;;;;2.28;1.60;;;23.20;41.40;;;;;;5095177;28;20198;-89
2022/10/26 09:24:07;;;;;;;2.65;1.60;;;23.70;35.10;;;;;;5097073;28;20555;-88
2022/10/26 09:26:41;;;;;;;4.43;1.60;;;23.40;33.80;;;;;;5099122;28;20259;-87
2022/10/26 09:29:13;;;;;;;3.22;1.52;;;23.50;35.00;;;;;;5096336;28;20285;-88
2022/10/26 09:31:44;;;;;;;3.67;1.40;;;23.60;34.60;;;;;;5096636;28;20278;-88
2022/10/26 09:34:24;;;;;;;6.60;1.80;;;23.90;29.60;;;;;;5092795;28;20215;-88
2022/10/26 09:36:56;;;;;;;3.60;1.55;;;23.40;29.30;;;;;;5092498;28;20192;-88
2022/10/26 09:39:39;;;;;;;4.90;1.48;;;23.30;32.20;;;;;;5090778;28;20202;-88
2022/10/26 09:42:16;;;;;;;4.30;1.50;;;24.00;30.50;;;;;;5092459;28;20219;-89
2022/10/26 09:44:50;;;;;;;3.42;1.70;;;24.50;29.60;;;;;;5089462;28;20204;-89
2022/10/26 09:47:35;;;;;;;1.63;1.42;;;24.50;27.00;;;;;;5094412;28;20554;-89
2022/10/26 09:50:21;;;;;;;3.00;1.55;;;23.80;28.60;;;;;;5094998;28;20282;-89
2022/10/26 09:53:02;;;;;;;2.90;1.60;;;23.20;31.90;;;;;;5104096;28;20567;-89
2022/10/26 09:55:35;;;;;;;3.40;1.70;;;22.50;34.10;;;;;;5096988;28;20214;-88
2022/10/26 09:58:14;;;;;;;2.08;1.52;;;22.10;38.60;;;;;;5098123;28;20287;-89
2022/10/26 10:00:42;;;;;;;3.80;1.50;;;21.80;41.00;;;;;;5091162;28;20195;-88
2022/10/26 10:03:24;;;;;;;4.43;1.70;;;21.80;37.60;;;;;;5094795;28;20944;-85
2022/10/26 10:05:53;;;;;;;6.07;1.75;;;21.60;37.10;;;;;;5099151;28;20785;-86
2022/10/26 10:08:22;;;;;;;1.60;1.35;;;21.40;37.80;;;;;;5103445;28;20608;-88
2022/10/26 10:11:36;;;;;;;3.63;1.30;;;21.10;35.60;;;;;;5107035;28;20288;-87
2022/10/26 10:14:17;;;;;;;3.30;1.58;;;20.90;37.50;;;;;;5114513;28;20288;-91
2022/10/26 10:16:52;;;;;;;2.20;1.40;;;20.70;38.30;;;;;;5108043;28;20207;-90
2022/10/26 10:19:23;;;;;;;3.58;1.50;;;20.40;41.80;;;;;;5118260;28;20713;-90
2022/10/26 10:21:55;;;;;;;5.28;1.60;;;20.20;43.80;;;;;;5109271;28;20568;-90
2022/10/26 10:24:28;;;;;;;1.83;1.58;;;20.10;37.90;;;;;;5122650;28;20199;-90
2022/10/26 10:27:03;;;;;;;2.58;1.60;;;20.00;40.70;;;;;;5116795;28;20291;-90
2022/10/26 10:29:34;;;;;;;2.08;1.30;;;20.00;40.50;;;;;;5111697;28;20283;-91
2022/10/26 10:32:02;;;;;;;3.28;1.52;;;19.90;39.90;;;;;;5109796;28;20282;-91
2022/10/26 10:34:31;;;;;;;1.73;1.50;;;19.90;43.30;;;;;;5117529;28;20227;-89
2022/10/26 10:37:00;;;;;;;3.75;1.35;;;20.10;45.90;;;;;;5122300;28;20271;-90
2022/10/26 10:39:39;;;;;;;3.25;1.52;;;20.30;41.70;;;;;;5118479;28;20192;-90
2022/10/26 10:42:18;;;;;;;2.63;1.58;;;20.60;42.90;;;;;;5104865;28;20212;-90
2022/10/26 10:44:53;;;;;;;3.03;1.45;;;20.70;41.50;;;;;;5112534;28;20684;-90
2022/10/26 10:48:13;;;;;;;3.60;1.60;;;20.70;40.30;;;;;;5107928;28;20196;-90
2022/10/26 10:50:56;;;;;;;4.43;1.63;;;20.70;39.40;;;;;;5120440;28;20227;-90
2022/10/26 10:53:37;;;;;;;4.10;1.60;;;20.60;40.30;;;;;;5111201;28;20200;-90
2022/10/26 10:56:21;;;;;;;4.22;1.75;;;20.50;41.30;;;;;;5119032;28;20231;-90
2022/10/26 10:59:21;;;;;;;5.85;1.80;;;20.50;40.00;;;;;;5115908;28;20195;-89
2022/10/26 11:01:52;;;;;;;2.92;1.45;;;20.40;39.40;;;;;;5110720;28;20640;-90
2022/10/26 11:04:43;;;;;;;4.47;1.90;;;20.40;39.30;;;;;;5111647;28;20671;-90
2022/10/26 11:07:12;;;;;;;5.38;1.90;;;20.30;38.90;;;;;;5117829;28;20200;-89
2022/10/26 11:10:16;;;;;;;4.20;1.80;;;20.20;40.20;;;;;;5111770;28;20206;-89
2022/10/26 11:12:56;;;;;;;6.35;2.00;;;20.10;41.10;;;;;;5111921;28;20291;-91
2022/10/26 11:15:26;;;;;;;4.82;1.88;;;20.00;40.80;;;;;;5113829;28;20196;-90
2022/10/26 11:21:36;;;;;;;7.22;2.20;;;20.00;40.80;;;;;;5113683;28;20187;-90
2022/10/26 11:27:33;;;;;;;3.75;1.70;;;20.20;39.90;;;;;;5112088;28;20223;-90
2022/10/26 11:30:18;;;;;;;5.20;2.28;;;20.20;40.30;;;;;;5114043;28;20226;-89
2022/10/26 11:32:54;;;;;;;4.40;1.85;;;20.30;40.30;;;;;;5110947;28;20188;-90
2022/10/26 11:35:44;;;;;;;7.82;2.00;;;20.40;39.50;;;;;;5111087;28;20275;-89
2022/10/26 11:38:17;;;;;;;6.30;2.10;;;20.40;40.00;;;;;;5112346;28;20643;-90
2022/10/26 11:41:15;;;;;;;5.85;1.73;;;20.30;41.30;;;;;;5112141;28;20280;-89
2022/10/26 11:44:26;;;;;;;4.43;2.08;;;20.30;41.00;;;;;;5110658;28;20314;-90
2022/10/26 11:47:15;;;;;;;5.25;2.10;;;20.40;40.90;;;;;;5102937;28;21112;-90
2022/10/26 11:50:06;;;;;;;5.03;2.03;;;20.30;41.10;;;;;;5106798;28;20206;-90
2022/10/26 11:52:43;;;;;;;4.82;1.98;;;20.10;41.20;;;;;;5100153;28;20249;-90
2022/10/26 11:58:54;;;;;;;10.25;2.28;;;19.90;44.00;;;;;;5108031;28;20180;-89
2022/10/26 12:05:16;;;;;;;6.60;2.08;;;20.10;43.90;;;;;;5112601;28;20223;-90
2022/10/26 12:07:48;;;;;;;7.63;2.28;;;20.10;42.80;;;;;;5103996;28;20211;-89
2022/10/26 12:10:27;;;;;;;5.60;2.08;;;20.00;42.70;;;;;;5089689;28;20555;-89
2022/10/26 12:16:54;;;;;;;3.70;1.95;;;19.70;46.00;;;;;;5084155;28;20188;-89
2022/10/26 12:20:01;;;;;;;4.55;2.17;;;19.60;46.80;;;;;;5100706;28;20715;-89
2022/10/26 12:22:57;;;;;;;7.80;2.28;;;19.40;52.20;;;;;;5097094;28;20243;-89
2022/10/26 12:25:39;;;;;;;4.85;2.30;;;19.40;52.40;;;;;;5094253;28;20295;-89
2022/10/26 12:28:39;;;;;;;7.25;2.08;;;19.30;53.40;;;;;;5099104;28;20275;-89
2022/10/26 12:31:44;;;;;;;11.38;2.50;;;19.40;51.40;;;;;;4997333;28;20207;-89
2022/10/26 12:34:56;;;;;;;7.68;2.58;;;19.30;54.30;;;;;;4995747;28;20598;-92
2022/10/26 12:41:37;;;;;;;8.43;2.20;;;19.40;52.20;;;;;;5009430;28;20230;-91
2022/10/26 12:54:40;;;;;;;9.48;2.60;;;20.00;47.50;;;;;;4980483;28;20214;-89
2022/10/26 12:57:18;;;;;;;4.32;2.47;;;20.00;49.00;;;;;;4990381;28;20239;-89
2022/10/26 13:03:23;;;;;;;9.90;2.90;;;20.20;46.40;;;;;;4984087;28;20219;-90
2022/10/26 13:09:17;;;;;;;9.60;2.67;;;20.40;44.70;;;;;;5090442;28;20207;-89
2022/10/26 13:16:01;;;;;;;6.15;2.40;;;20.70;39.70;;;;;;5099471;28;20309;-89
2022/10/26 13:18:30;;;;;;;10.48;3.00;;;21.00;40.60;;;;;;5106865;28;20295;-89
2022/10/26 13:21:26;;;;;;;11.02;2.28;;;20.90;39.00;;;;;;5109227;28;20234;-90
2022/10/26 13:24:44;;;;;;;10.50;2.80;;;20.90;39.10;;;;;;5112622;28;20244;-90
2022/10/26 13:27:45;;;;;;;6.75;3.17;;;20.60;38.80;;;;;;5113450;28;20185;-89
2022/10/26 13:30:38;;;;;;;8.02;2.47;;;20.40;39.90;;;;;;5102722;28;20616;-90
2022/10/26 13:36:34;;;;;;;10.27;2.42;;;20.10;43.10;;;;;;5115526;28;20201;-89
2022/10/26 13:43:14;;;;;;;8.38;3.40;;;19.90;41.80;;;;;;5113377;28;20201;-89
2022/10/26 13:45:49;;;;;;;11.65;3.15;;;19.80;42.40;;;;;;5110250;28;20206;-89
2022/10/26 13:48:23;;;;;;;8.93;2.60;;;19.80;43.20;;;;;;5118721;28;20215;-89
2022/10/26 13:54:28;;;;;;;9.43;2.50;;;19.80;45.30;;;;;;5115190;28;20244;-89
2022/10/26 13:57:50;;;;;;;7.57;2.75;;;19.60;45.30;;;;;;5105349;28;20213;-90
2022/10/26 14:00:26;;;;;;;7.85;2.50;;;19.70;47.20;;;;;;5122285;28;20227;-89
2022/10/26 14:06:23;;;;;;;6.65;2.28;;;19.60;46.60;;;;;;5112703;28;20342;-90
2022/10/26 14:09:31;;;;;;;7.35;2.60;;;19.60;47.00;;;;;;5107217;28;20215;-90
2022/10/26 14:15:10;;;;;;;13.00;2.50;;;19.80;46.70;;;;;;5118399;28;20208;-89
2022/10/26 14:17:36;;;;;;;5.72;2.00;;;19.70;46.30;;;;;;5121216;28;20287;-90
2022/10/26 14:23:27;;;;;;;6.88;2.20;;;19.70;48.00;;;;;;5119745;28;20219;-89
2022/10/26 14:26:50;;;;;;;8.10;2.60;;;19.70;47.70;;;;;;5118222;28;20287;-88
2022/10/26 14:32:23;;;;;;;13.38;2.50;;;19.60;48.40;;;;;;5051226;28;20205;-90
2022/10/26 14:41:52;;;;;;;8.77;2.30;;;19.50;50.70;;;;;;5045418;28;20212;-86
2022/10/26 14:44:45;;;;;;;7.72;3.15;;;19.30;52.90;;;;;;5056928;28;20288;-89
2022/10/26 14:47:38;;;;;;;6.95;2.28;;;19.30;55.30;;;;;;5053018;28;20222;-86
2022/10/26 14:50:30;;;;;;;9.38;2.55;;;19.20;55.20;;;;;;5046692;28;20285;-86
2022/10/26 14:53:05;;;;;;;5.30;2.50;;;19.10;55.10;;;;;;5052436;28;20305;-87
2022/10/26 14:55:48;;;;;;;9.20;2.30;;;19.10;55.10;;;;;;5056429;28;20274;-87
2022/10/26 14:58:22;;;;;;;8.73;3.10;;;19.00;57.00;;;;;;5051652;28;20245;-87
2022/10/26 15:01:23;;;;;;;10.40;2.58;;;19.00;59.50;;;;;;5059520;28;20280;-88
2022/10/26 15:03:54;;;;;;;6.32;2.72;;;18.90;61.30;;;;;;5100620;28;20299;-87
2022/10/26 15:06:33;;;;;;;5.35;2.40;;;18.80;61.60;;;;;;5111341;28;20311;-88
2022/10/26 15:09:29;;;;;;;13.35;3.13;;;18.70;64.30;;;;;;5111627;28;20204;-89
2022/10/26 15:11:56;;;;;;;5.32;2.22;;;18.60;66.30;;;;;;5112983;28;20676;-88
2022/10/26 15:14:34;;;;;;;5.93;2.63;;;18.60;68.70;;;;;;5115994;28;20495;-87
2022/10/26 15:17:02;;;;;;;5.97;3.10;;;18.50;72.60;;;;;;5120215;28;20203;-87
2022/10/26 15:19:33;;;;;;;8.80;3.05;;;18.40;73.30;;;;;;5117767;28;20643;-88
2022/10/26 15:22:00;;;;;;;9.93;3.28;;;18.40;75.00;;;;;;5120454;28;20259;-88
2022/10/26 15:24:39;;;;;;;6.13;2.80;;;18.20;76.40;;;;;;5117553;28;20306;-88
2022/10/26 15:27:14;;;;;;;10.85;2.88;;;18.10;77.10;;;;;;5120579;28;20773;-89
2022/10/26 15:29:43;;;;;;;7.40;2.50;;;18.10;78.70;;;;;;5109305;28;20192;-87
2022/10/26 15:32:25;;;;;;;7.40;2.72;;;18.00;79.40;;;;;;5119142;28;20263;-87
2022/10/26 15:35:25;;;;;;;6.03;2.67;;;17.90;79.40;;;;;;5101608;28;20200;-90
2022/10/26 15:37:57;;;;;;;8.20;2.80;;;17.80;80.50;;;;;;5093331;28;20225;-91
2022/10/26 15:40:35;;;;;;;5.43;2.85;;;17.80;81.30;;;;;;5096410;28;20196;-90
2022/10/26 15:43:03;;;;;;;4.93;2.85;;;17.80;84.00;;;;;;5104313;28;20265;-89
2022/10/26 15:45:33;;;;;;;7.32;3.13;;;17.70;84.00;;;;;;5104473;28;20201;-91
2022/10/26 15:48:18;;;;;;;7.85;3.05;;;17.70;85.00;;;;;;5113205;28;20719;-91
2022/10/26 15:50:45;;;;;;;5.53;3.17;;;17.60;86.20;;;;;;5101645;28;20249;-90
2022/10/26 15:53:27;;;;;;;6.18;3.03;;;17.50;87.40;;;;;;5107793;28;20297;-91
2022/10/26 15:55:56;;;;;;;7.90;3.30;;;17.40;87.80;;;;;;5105694;28;20206;-91
2022/10/26 15:58:31;;;;;;;5.55;3.25;;;17.40;89.00;;;;;;5111637;28;20206;-91
2022/10/26 16:01:17;;;;;;;8.90;4.13;;;17.30;89.40;;;;;;5100647;28;20202;-90
2022/10/26 16:03:46;;;;;;;13.45;4.00;;;17.30;90.40;;;;;;5101786;27;20230;-91
2022/10/26 16:06:17;;;;;;;10.63;3.72;;;17.30;90.70;;;;;;5098174;28;20298;-89
2022/10/26 16:08:49;;;;;;;8.75;3.10;;;17.20;91.00;;;;;;5085415;28;20194;-90
2022/10/26 16:11:20;;;;;;;8.13;3.50;;;17.20;91.30;;;;;;5088019;28;20208;-89
2022/10/26 16:14:20;;;;;;;9.25;4.03;;;17.20;91.40;;;;;;5094215;28;20225;-88
2022/10/26 16:16:47;;;;;;;9.43;3.53;;;17.10;92.00;;;;;;5089308;28;20232;-89
2022/10/26 16:19:22;;;;;;;7.13;3.10;;;17.00;91.90;;;;;;5089206;28;20287;-91
2022/10/26 16:21:51;;;;;;;7.22;4.10;;;17.00;92.20;;;;;;5083775;28;20200;-89
2022/10/26 16:24:18;;;;;;;10.63;3.65;;;16.90;92.50;;;;;;5087051;28;20220;-90
2022/10/26 16:26:45;;;;;;;9.35;3.35;;;17.00;92.10;;;;;;5091521;28;20283;-90
2022/10/26 16:29:14;;;;;;;6.35;3.03;;;17.00;92.50;;;;;;5085467;28;20204;-91
2022/10/26 16:31:44;;;;;;;9.45;2.90;;;16.90;92.70;;;;;;5081662;28;20707;-90
2022/10/26 16:34:12;;;;;;;10.93;4.28;;;16.80;92.90;;;;;;5084712;28;20279;-92
2022/10/26 16:36:41;;;;;;;6.95;3.25;;;16.80;92.90;;;;;;5092977;28;20694;-91
2022/10/26 16:39:44;;;;;;;7.68;2.85;;;16.70;93.10;;;;;;5093330;28;20198;-92
2022/10/26 16:42:44;;;;;;;9.40;3.20;;;16.80;93.10;;;;;;5095251;28;20291;-91
2022/10/26 16:49:20;;;;;;;11.95;3.90;;;16.70;93.70;;;;;;5091205;28;20216;-92
2022/10/26 16:58:34;;;;;;;11.55;4.25;;;16.50;94.80;;;;;;5095779;28;20230;-91
2022/10/26 17:01:01;;;;;;;10.43;4.40;;;16.40;94.90;;;;;;5091982;28;20240;-91
2022/10/26 17:06:50;;;;;;;11.40;3.90;;;16.40;95.00;;;;;;5091760;28;20226;-92
2022/10/26 17:09:26;;;;;;;9.70;3.85;;;16.40;95.10;;;;;;5079607;28;20288;-92
2022/10/26 17:11:54;;;;;;;11.80;3.72;;;16.30;95.20;;;;;;5093475;28;20729;-93
2022/10/26 17:14:28;;;;;;;13.15;4.13;;;16.30;95.60;;;;;;5087343;28;20201;-93
2022/10/26 17:16:56;;;;;;;8.35;3.85;;;16.20;96.10;;;;;;5089470;28;20285;-92
2022/10/26 17:19:23;;;;;;;11.90;4.38;;;16.20;96.20;;;;;;5090239;28;20627;-92
2022/10/26 17:21:50;;;;;;;11.85;4.30;;;16.30;96.10;;;;;;5093834;28;20279;-92
2022/10/26 17:24:23;;;;;;;9.43;4.18;;;16.20;96.10;;;;;;5090893;28;20228;-93
2022/10/26 17:26:50;;;;;;;6.10;3.85;;;16.30;96.20;;;;;;5092975;28;20287;-92
2022/10/26 17:29:17;;;;;;;10.05;4.47;;;16.30;96.20;;;;;;5092382;28;20750;-91
2022/10/26 17:31:46;;;;;;;12.50;4.78;;;16.20;96.30;;;;;;5077027;28;20197;-91
2022/10/26 17:34:14;;;;;;;10.60;4.72;;;16.20;96.70;;;;;;5089429;28;20197;-91
2022/10/26 17:36:50;;;;;;;11.75;4.72;;;16.20;96.80;;;;;;5089293;28;20246;-91
2022/10/26 17:39:20;;;;;;;13.02;4.43;;;16.20;96.90;;;;;;5089326;28;20626;-92
2022/10/26 17:41:56;;;;;;;10.57;4.22;;;16.10;97.20;;;;;;5087081;28;20272;-91
2022/10/26 17:48:15;;;;;;;13.77;4.78;;;16.00;97.10;;;;;;5092425;28;20180;-91
2022/10/26 17:50:42;;;;;;;12.98;5.03;;;16.00;97.10;;;;;;5090950;28;20613;-90
2022/10/26 17:53:14;;;;;;;9.13;4.97;;;16.00;97.10;;;;;;5098547;28;20291;-90
2022/10/26 17:56:02;;;;;;;9.60;5.03;;;15.90;97.40;;;;;;5087122;28;20194;-91
2022/10/26 17:58:29;;;;;;;10.25;5.13;;;15.80;97.80;;;;;;5092209;28;20224;-91
2022/10/26 18:01:01;;;;;;;10.63;4.63;;;15.80;98.10;;;;;;5095648;28;20198;-92
2022/10/26 18:03:34;;;;;;;12.90;4.60;;;15.80;98.30;;;;;;5080002;28;20208;-90
2022/10/26 18:06:09;;;;;;;8.98;5.10;;;15.70;98.30;;;;;;5087077;28;20240;-91
2022/10/26 18:09:31;;;;;;;10.40;5.22;;;15.60;98.50;;;;;;5100790;28;20191;-93
2022/10/26 18:11:58;;;;;;;11.77;4.72;;;15.50;98.70;;;;;;5066637;28;20198;-91
2022/10/26 18:14:24;;;;;;;15.30;5.30;;;15.40;99.10;;;;;;5071037;28;20618;-91